Time;durP1;ratioP1;P1;durP2;ratioP2;P2;SDS_P1;SDS_P2;PMS_P1;PMS_P2;Temp;Humidity;BMP_temperature;BMP_pressure;BME280_temperature;BME280_humidity;BME280_pressure;Samples;Min_cycle;Max_cycle;Signal;HPM_P1;HPM_P2
2022/04/06 00:01:46;;;;;;;26.05;8.38;;;10.30;99.90;;;;;;5093179;28;20044;-74
2022/04/06 00:04:13;;;;;;;26.40;7.78;;;10.20;99.90;;;;;;5091918;28;20375;-75
2022/04/06 00:06:38;;;;;;;23.38;7.72;;;10.20;99.90;;;;;;5092903;28;20081;-75
2022/04/06 00:09:04;;;;;;;38.47;10.32;;;10.20;99.90;;;;;;5092717;28;20048;-75
2022/04/06 00:11:30;;;;;;;24.65;7.03;;;10.30;99.90;;;;;;5091949;28;20119;-75
2022/04/06 00:13:56;;;;;;;27.20;7.47;;;10.30;99.90;;;;;;5092602;28;20464;-74
2022/04/06 00:16:22;;;;;;;28.45;7.90;;;10.20;99.90;;;;;;5092519;28;20035;-74
2022/04/06 00:18:48;;;;;;;24.75;7.10;;;10.20;99.90;;;;;;5091985;28;20392;-75
2022/04/06 00:21:13;;;;;;;28.65;7.38;;;10.30;99.90;;;;;;5092057;28;20023;-74
2022/04/06 00:23:39;;;;;;;21.95;6.95;;;10.30;99.90;;;;;;5092507;28;20031;-75
2022/04/06 00:26:05;;;;;;;31.20;7.18;;;10.30;99.90;;;;;;5092179;28;20077;-74
2022/04/06 00:28:30;;;;;;;28.45;8.25;;;10.20;99.90;;;;;;5092044;28;20028;-74
2022/04/06 00:30:57;;;;;;;24.92;6.93;;;10.30;99.90;;;;;;5092349;28;20072;-75
2022/04/06 00:33:22;;;;;;;25.13;7.82;;;10.20;99.90;;;;;;5091668;28;20038;-74
2022/04/06 00:35:48;;;;;;;25.30;7.32;;;10.30;99.90;;;;;;5092799;28;20567;-74
2022/04/06 00:38:14;;;;;;;20.10;6.72;;;10.30;99.90;;;;;;5092133;28;20461;-74
2022/04/06 00:40:40;;;;;;;22.90;6.40;;;10.30;99.90;;;;;;5094577;28;20024;-75
2022/04/06 00:43:13;;;;;;;20.52;6.60;;;10.20;99.90;;;;;;5097208;28;20060;-74
2022/04/06 00:45:41;;;;;;;22.40;7.80;;;10.20;99.90;;;;;;5091901;28;20035;-74
2022/04/06 00:48:11;;;;;;;19.52;7.30;;;10.30;99.90;;;;;;5092199;28;20028;-74
2022/04/06 00:50:38;;;;;;;25.92;6.28;;;10.30;99.90;;;;;;5092695;28;20028;-73
2022/04/06 00:53:04;;;;;;;21.73;7.10;;;10.20;99.90;;;;;;5091931;28;20090;-73
2022/04/06 00:55:36;;;;;;;30.88;7.05;;;10.30;99.90;;;;;;5091905;28;20103;-73
2022/04/06 00:58:01;;;;;;;18.15;7.20;;;10.30;99.90;;;;;;5092195;28;20524;-73
2022/04/06 01:00:28;;;;;;;22.23;6.68;;;10.30;99.90;;;;;;5091337;28;20024;-73
2022/04/06 01:02:53;;;;;;;21.38;5.47;;;10.30;99.90;;;;;;5091769;28;20069;-73
2022/04/06 01:05:19;;;;;;;23.33;5.82;;;10.30;99.90;;;;;;5091994;28;20107;-73
2022/04/06 01:07:49;;;;;;;25.27;5.90;;;10.30;99.90;;;;;;5091665;28;20028;-74
2022/04/06 01:10:16;;;;;;;19.90;6.55;;;10.30;99.90;;;;;;5091406;28;20052;-73
2022/04/06 01:12:46;;;;;;;15.15;5.35;;;10.30;99.90;;;;;;5092145;28;20476;-73
2022/04/06 01:15:12;;;;;;;21.17;5.35;;;10.30;99.90;;;;;;5091115;28;20024;-73
2022/04/06 01:17:37;;;;;;;18.77;5.40;;;10.20;99.90;;;;;;5091973;28;20028;-74
2022/04/06 01:20:05;;;;;;;18.92;5.75;;;10.20;99.90;;;;;;5092121;28;20031;-74
2022/04/06 01:22:31;;;;;;;13.98;4.90;;;10.20;99.90;;;;;;5091241;28;20024;-74
2022/04/06 01:24:57;;;;;;;24.60;6.25;;;10.20;99.90;;;;;;5092258;28;20074;-73
2022/04/06 01:27:23;;;;;;;25.58;6.97;;;10.20;99.90;;;;;;5090654;28;20028;-73
2022/04/06 01:29:50;;;;;;;20.48;6.65;;;10.20;99.90;;;;;;5091131;28;20368;-73
2022/04/06 01:32:21;;;;;;;13.27;5.28;;;10.20;99.90;;;;;;5092577;28;20048;-74
2022/04/06 01:34:48;;;;;;;17.30;5.13;;;10.20;99.90;;;;;;5095583;28;20376;-73
2022/04/06 01:37:14;;;;;;;25.48;6.00;;;10.20;99.90;;;;;;5095396;28;20062;-74
2022/04/06 01:39:43;;;;;;;22.15;4.53;;;10.20;99.90;;;;;;5095511;28;20078;-74
2022/04/06 01:42:10;;;;;;;15.10;4.82;;;10.20;99.90;;;;;;5094968;28;20195;-74
2022/04/06 01:44:36;;;;;;;26.45;6.38;;;10.20;99.90;;;;;;5095667;28;20024;-74
2022/04/06 01:47:04;;;;;;;20.00;4.30;;;10.20;99.90;;;;;;5095881;28;20016;-74
2022/04/06 01:52:17;;;;;;;17.73;4.32;;;10.10;99.90;;;;;;5095039;28;20043;-74
2022/04/06 01:54:56;;;;;;;15.43;3.53;;;10.10;99.90;;;;;;5095426;28;20491;-74
2022/04/06 01:57:23;;;;;;;12.60;3.58;;;10.10;99.90;;;;;;5094786;28;20020;-73
2022/04/06 01:59:49;;;;;;;10.43;3.60;;;10.10;99.90;;;;;;5095723;28;20111;-73
2022/04/06 02:02:17;;;;;;;17.98;4.05;;;10.10;99.90;;;;;;5095083;28;20106;-73
2022/04/06 02:04:44;;;;;;;14.32;3.78;;;10.10;99.90;;;;;;5094632;28;20024;-74
2022/04/06 02:07:10;;;;;;;11.80;2.83;;;10.10;99.90;;;;;;5094616;28;20540;-74
2022/04/06 02:09:39;;;;;;;12.43;2.53;;;10.10;99.90;;;;;;5094795;28;20051;-74
2022/04/06 02:12:06;;;;;;;10.43;2.75;;;10.10;99.90;;;;;;5094510;28;20047;-73
2022/04/06 02:14:32;;;;;;;10.50;2.75;;;10.10;99.90;;;;;;5094893;28;20507;-74
2022/04/06 02:16:58;;;;;;;8.30;2.85;;;10.10;99.90;;;;;;5094406;28;20036;-74
2022/04/06 02:19:23;;;;;;;9.40;2.40;;;10.20;99.90;;;;;;5094404;28;20024;-74
2022/04/06 02:21:49;;;;;;;10.52;2.97;;;10.10;99.90;;;;;;5094781;28;20078;-74
2022/04/06 02:24:14;;;;;;;10.50;2.08;;;10.10;99.90;;;;;;5094408;28;20056;-74
2022/04/06 02:26:40;;;;;;;8.75;2.30;;;10.00;99.90;;;;;;5094589;28;20395;-74
2022/04/06 02:29:06;;;;;;;13.25;2.60;;;10.00;99.90;;;;;;5094789;28;20479;-74
2022/04/06 02:31:32;;;;;;;15.90;2.53;;;10.00;99.90;;;;;;5094720;28;20046;-74
2022/04/06 02:33:58;;;;;;;6.38;2.90;;;10.00;99.90;;;;;;5099993;28;20074;-74
2022/04/06 02:36:24;;;;;;;11.52;3.10;;;10.00;99.90;;;;;;5094946;28;20028;-74
2022/04/06 02:38:50;;;;;;;17.23;2.95;;;10.00;99.90;;;;;;5094650;28;20027;-75
2022/04/06 02:41:15;;;;;;;9.98;2.35;;;10.00;99.90;;;;;;5094278;28;20058;-74
2022/04/06 02:43:41;;;;;;;9.80;2.13;;;9.90;99.90;;;;;;5094503;28;20059;-74
2022/04/06 02:46:06;;;;;;;10.80;2.42;;;9.90;99.90;;;;;;5093909;28;20023;-74
2022/04/06 02:48:32;;;;;;;7.95;2.20;;;9.90;99.90;;;;;;5094213;28;20415;-74
2022/04/06 02:50:58;;;;;;;14.07;2.47;;;9.80;99.90;;;;;;5094263;28;20039;-74
2022/04/06 02:53:23;;;;;;;13.82;2.10;;;9.90;99.90;;;;;;5093510;28;20027;-74
2022/04/06 02:55:49;;;;;;;12.95;2.78;;;9.80;99.90;;;;;;5094005;28;20118;-74
2022/04/06 02:58:15;;;;;;;13.00;2.25;;;9.80;99.90;;;;;;5093835;28;20071;-73
2022/04/06 03:00:44;;;;;;;11.38;2.13;;;9.80;99.90;;;;;;5093628;28;20028;-73
2022/04/06 03:03:09;;;;;;;8.05;1.83;;;9.70;99.90;;;;;;5093916;28;20499;-74
2022/04/06 03:05:35;;;;;;;6.82;1.48;;;9.70;99.90;;;;;;5094091;28;20051;-74
2022/04/06 03:08:00;;;;;;;5.53;1.80;;;9.60;99.90;;;;;;5093646;28;20150;-73
2022/04/06 03:10:26;;;;;;;8.38;1.83;;;9.60;99.90;;;;;;5093519;28;20101;-73
2022/04/06 03:12:52;;;;;;;4.95;1.67;;;9.60;99.90;;;;;;5093975;28;20443;-74
2022/04/06 03:15:18;;;;;;;7.07;1.65;;;9.50;99.90;;;;;;5092936;28;20380;-74
2022/04/06 03:17:43;;;;;;;3.30;1.35;;;9.50;99.90;;;;;;5093877;28;20036;-73
2022/04/06 03:20:13;;;;;;;13.50;1.65;;;9.50;99.90;;;;;;5093169;28;20031;-74
2022/04/06 03:22:39;;;;;;;13.55;1.85;;;9.50;99.90;;;;;;5093824;28;20110;-73
2022/04/06 03:25:08;;;;;;;5.00;1.30;;;9.50;99.90;;;;;;5093905;28;20017;-73
2022/04/06 03:27:35;;;;;;;9.38;2.15;;;9.40;99.90;;;;;;5093357;28;20516;-74
2022/04/06 03:30:06;;;;;;;10.82;2.78;;;9.40;99.90;;;;;;5093273;28;20024;-74
2022/04/06 03:32:31;;;;;;;3.42;1.33;;;9.40;99.90;;;;;;5093698;28;20372;-74
2022/04/06 03:34:57;;;;;;;7.57;2.08;;;9.40;99.90;;;;;;5093068;28;20050;-74
2022/04/06 03:37:23;;;;;;;10.55;1.77;;;9.50;99.90;;;;;;5093186;28;20476;-74
2022/04/06 03:39:48;;;;;;;7.53;2.30;;;9.50;99.90;;;;;;5093826;28;20020;-74
2022/04/06 03:42:14;;;;;;;5.22;1.42;;;9.50;99.90;;;;;;5092747;28;20368;-74
2022/04/06 03:44:40;;;;;;;6.30;1.83;;;9.50;99.90;;;;;;5075073;28;20022;-74
2022/04/06 03:47:05;;;;;;;6.35;1.50;;;9.50;99.90;;;;;;5093350;28;20527;-73
2022/04/06 03:49:31;;;;;;;7.35;2.05;;;9.60;99.90;;;;;;5092671;28;20376;-74
2022/04/06 03:51:57;;;;;;;16.77;2.55;;;9.60;99.90;;;;;;5093145;28;20028;-73
2022/04/06 03:54:23;;;;;;;13.38;2.47;;;9.70;99.90;;;;;;5092537;28;20418;-73
2022/04/06 03:56:51;;;;;;;14.05;3.05;;;9.70;99.90;;;;;;5092195;28;20104;-73
2022/04/06 03:59:16;;;;;;;8.45;2.25;;;9.70;99.90;;;;;;5092785;28;20028;-74
2022/04/06 04:01:42;;;;;;;15.57;2.10;;;9.70;99.90;;;;;;5092821;28;20028;-74
2022/04/06 04:04:10;;;;;;;12.15;2.38;;;9.70;99.90;;;;;;5092123;28;20042;-74
2022/04/06 04:06:36;;;;;;;9.02;2.58;;;9.70;99.90;;;;;;5093187;28;20028;-73
2022/04/06 04:09:02;;;;;;;8.38;2.10;;;9.70;99.90;;;;;;5093337;28;20059;-73
2022/04/06 04:11:28;;;;;;;7.57;2.00;;;9.70;99.90;;;;;;5091837;28;20032;-73
2022/04/06 04:13:53;;;;;;;10.38;2.10;;;9.70;99.90;;;;;;5092897;28;20039;-73
2022/04/06 04:16:19;;;;;;;14.73;2.78;;;9.70;99.90;;;;;;5092279;28;20046;-73
2022/04/06 04:18:44;;;;;;;10.18;2.88;;;9.70;99.90;;;;;;5092571;28;20020;-73
2022/04/06 04:23:54;;;;;;;8.10;2.90;;;9.70;99.90;;;;;;5094187;28;20038;-73
2022/04/06 04:26:19;;;;;;;7.15;2.35;;;9.70;99.90;;;;;;5092199;28;20102;-73
2022/04/06 04:28:45;;;;;;;7.65;2.10;;;9.70;99.90;;;;;;5092505;28;20016;-74
2022/04/06 04:31:11;;;;;;;9.18;2.22;;;9.80;99.90;;;;;;5091930;28;20069;-73
2022/04/06 04:33:36;;;;;;;12.52;2.10;;;9.80;99.90;;;;;;5092504;28;20021;-73
2022/04/06 04:36:02;;;;;;;11.30;3.15;;;9.80;99.90;;;;;;5092595;28;20030;-73
2022/04/06 04:38:27;;;;;;;10.52;2.10;;;9.70;99.90;;;;;;5091838;28;20024;-73
2022/04/06 04:40:54;;;;;;;10.68;2.78;;;9.70;99.90;;;;;;5092324;28;20051;-73
2022/04/06 04:43:20;;;;;;;9.98;2.03;;;9.80;99.90;;;;;;5092109;28;20445;-73
2022/04/06 04:45:46;;;;;;;8.20;1.95;;;9.70;99.90;;;;;;5092149;28;20063;-73
2022/04/06 04:48:11;;;;;;;8.45;2.63;;;9.70;99.90;;;;;;5091859;28;20023;-73
2022/04/06 04:50:37;;;;;;;15.52;2.63;;;9.70;99.90;;;;;;5092150;28;20129;-73
2022/04/06 04:53:02;;;;;;;7.95;2.42;;;9.70;99.90;;;;;;5091431;28;20476;-73
2022/04/06 04:55:28;;;;;;;6.85;2.13;;;9.60;99.90;;;;;;5091882;28;20023;-73
2022/04/06 04:57:53;;;;;;;10.70;2.67;;;9.60;99.90;;;;;;5092084;28;20025;-72
2022/04/06 05:00:19;;;;;;;14.65;2.72;;;9.70;99.90;;;;;;5091233;28;20064;-73
2022/04/06 05:02:44;;;;;;;9.48;2.58;;;9.70;99.90;;;;;;5091896;28;20380;-73
2022/04/06 05:05:11;;;;;;;10.05;2.63;;;9.70;99.90;;;;;;5091895;28;20028;-73
2022/04/06 05:07:37;;;;;;;14.48;2.92;;;9.70;99.90;;;;;;5092887;28;20483;-73
2022/04/06 05:10:10;;;;;;;11.63;2.88;;;9.70;99.90;;;;;;5096064;28;20079;-73
2022/04/06 05:12:36;;;;;;;8.48;2.58;;;9.70;99.90;;;;;;5095592;28;20040;-73
2022/04/06 05:15:02;;;;;;;11.18;2.72;;;9.80;99.90;;;;;;5096028;28;20024;-73
2022/04/06 05:17:28;;;;;;;19.20;3.60;;;9.70;99.90;;;;;;5095261;28;20039;-73
2022/04/06 05:19:54;;;;;;;13.10;2.83;;;9.70;99.90;;;;;;5095508;28;20024;-73
2022/04/06 05:22:20;;;;;;;9.85;3.35;;;9.80;99.90;;;;;;5095246;28;20039;-73
2022/04/06 05:24:46;;;;;;;11.77;3.40;;;9.70;99.90;;;;;;5095646;28;20020;-73
2022/04/06 05:27:12;;;;;;;14.27;3.67;;;9.80;99.90;;;;;;5094857;28;20078;-73
2022/04/06 05:29:37;;;;;;;17.17;3.35;;;9.80;99.90;;;;;;5095708;28;20479;-73
2022/04/06 05:32:03;;;;;;;17.27;3.88;;;9.80;99.90;;;;;;5095534;28;20044;-73
2022/04/06 05:34:29;;;;;;;18.00;3.92;;;9.80;99.90;;;;;;5094918;28;20107;-73
2022/04/06 05:36:55;;;;;;;13.93;3.80;;;9.90;99.90;;;;;;5095460;28;20460;-73
2022/04/06 05:39:21;;;;;;;13.65;3.85;;;9.80;99.90;;;;;;5095144;28;20023;-73
2022/04/06 05:41:48;;;;;;;10.80;3.30;;;9.80;99.90;;;;;;5094662;28;20548;-72
2022/04/06 05:44:13;;;;;;;20.60;4.28;;;9.90;99.90;;;;;;5094901;28;20039;-73
2022/04/06 05:46:39;;;;;;;9.07;4.18;;;9.80;99.90;;;;;;5095634;28;20418;-73
2022/04/06 05:49:05;;;;;;;10.77;3.17;;;9.90;99.90;;;;;;5094418;28;20074;-73
2022/04/06 05:51:30;;;;;;;16.98;3.38;;;9.90;99.90;;;;;;5094811;28;20035;-73
2022/04/06 05:53:56;;;;;;;14.18;3.42;;;9.90;99.90;;;;;;5095091;28;20057;-74
2022/04/06 05:56:21;;;;;;;14.18;3.75;;;9.90;99.90;;;;;;5093801;28;20017;-74
2022/04/06 05:58:47;;;;;;;20.08;3.65;;;9.90;99.90;;;;;;5095246;28;20039;-74
2022/04/06 06:01:12;;;;;;;18.10;3.88;;;9.90;99.90;;;;;;5094965;28;20490;-73
2022/04/06 06:03:38;;;;;;;10.82;2.60;;;9.90;99.90;;;;;;5094212;28;20024;-73
2022/04/06 06:06:03;;;;;;;7.25;2.58;;;10.00;99.90;;;;;;5095027;28;20024;-73
2022/04/06 06:08:29;;;;;;;14.63;2.70;;;10.00;99.90;;;;;;5093470;28;20129;-72
2022/04/06 06:10:55;;;;;;;8.80;2.70;;;10.00;99.90;;;;;;5077113;28;20039;-74
2022/04/06 06:13:21;;;;;;;6.28;2.25;;;10.00;99.90;;;;;;5072814;28;20044;-74
2022/04/06 06:15:47;;;;;;;7.82;2.33;;;10.00;99.90;;;;;;5072859;28;20021;-73
2022/04/06 06:18:13;;;;;;;10.90;2.25;;;10.10;99.90;;;;;;5071465;28;20037;-73
2022/04/06 06:20:38;;;;;;;8.35;2.55;;;10.10;99.90;;;;;;5072822;28;20107;-73
2022/04/06 06:23:04;;;;;;;13.63;2.20;;;10.10;99.90;;;;;;5072613;28;20058;-74
2022/04/06 06:25:30;;;;;;;8.60;2.20;;;10.10;99.90;;;;;;5072690;28;20048;-74
2022/04/06 06:27:55;;;;;;;10.43;1.80;;;10.10;99.90;;;;;;5073107;28;20021;-73
2022/04/06 06:30:21;;;;;;;11.13;2.17;;;10.10;99.90;;;;;;5072304;28;20016;-74
2022/04/06 06:32:46;;;;;;;5.15;1.77;;;10.10;99.90;;;;;;5072793;28;20029;-74
2022/04/06 06:35:13;;;;;;;12.90;1.90;;;10.10;99.90;;;;;;5073254;28;20017;-74
2022/04/06 06:37:49;;;;;;;7.15;1.30;;;10.20;99.90;;;;;;5075076;28;20469;-75
2022/04/06 06:40:16;;;;;;;8.00;1.73;;;10.20;99.90;;;;;;5072258;28;20033;-73
2022/04/06 06:42:42;;;;;;;7.50;1.23;;;10.20;99.90;;;;;;5072747;28;20032;-74
2022/04/06 06:45:08;;;;;;;11.93;2.00;;;10.20;99.90;;;;;;5072260;28;20069;-74
2022/04/06 06:47:33;;;;;;;12.68;2.75;;;10.30;99.90;;;;;;5075912;28;20039;-73
2022/04/06 06:49:59;;;;;;;9.13;1.75;;;10.30;99.90;;;;;;5072773;28;20112;-74
2022/04/06 06:52:25;;;;;;;5.05;1.23;;;10.30;99.90;;;;;;5074390;28;20032;-74
2022/04/06 06:54:50;;;;;;;7.00;1.20;;;10.40;99.90;;;;;;5072473;28;20017;-75
2022/04/06 06:57:16;;;;;;;8.40;1.75;;;10.40;99.90;;;;;;5071403;28;20111;-73
2022/04/06 06:59:42;;;;;;;8.02;1.50;;;10.40;99.90;;;;;;5071004;28;20112;-72
2022/04/06 07:02:09;;;;;;;13.63;1.88;;;10.70;99.90;;;;;;5072434;28;20158;-74
2022/04/06 07:04:34;;;;;;;4.28;1.80;;;10.40;99.90;;;;;;5072703;28;20115;-73
2022/04/06 07:07:00;;;;;;;9.05;2.08;;;10.40;99.90;;;;;;5071460;28;20060;-74
2022/04/06 07:09:25;;;;;;;10.73;1.92;;;10.50;99.90;;;;;;5074798;28;20094;-74
2022/04/06 07:11:52;;;;;;;4.97;1.52;;;10.50;99.90;;;;;;5072800;28;20035;-72
2022/04/06 07:14:18;;;;;;;8.70;1.50;;;10.50;99.90;;;;;;5071464;28;20024;-73
2022/04/06 07:16:44;;;;;;;11.60;3.95;;;10.50;99.90;;;;;;5071936;28;20028;-73
2022/04/06 07:19:09;;;;;;;4.28;1.50;;;10.60;99.90;;;;;;5073753;28;20051;-72
2022/04/06 07:21:35;;;;;;;6.20;1.67;;;10.60;99.90;;;;;;5071526;28;20021;-72
2022/04/06 07:24:03;;;;;;;5.05;1.77;;;10.60;99.90;;;;;;5072034;28;20028;-73
2022/04/06 07:26:29;;;;;;;7.68;2.05;;;10.70;99.90;;;;;;5089117;28;20123;-73
2022/04/06 07:28:54;;;;;;;9.00;1.67;;;10.70;99.90;;;;;;5083918;28;20116;-73
2022/04/06 07:31:20;;;;;;;5.40;1.48;;;10.70;99.90;;;;;;5071348;28;20032;-73
2022/04/06 07:33:45;;;;;;;11.82;2.50;;;10.60;99.90;;;;;;5072535;28;20530;-72
2022/04/06 07:36:11;;;;;;;7.93;2.42;;;10.60;99.90;;;;;;5072387;28;20077;-73
2022/04/06 07:38:37;;;;;;;5.15;1.38;;;10.60;99.90;;;;;;5072957;28;20036;-72
2022/04/06 07:41:02;;;;;;;13.80;2.22;;;10.50;99.90;;;;;;5072292;28;20089;-74
2022/04/06 07:43:28;;;;;;;10.98;1.90;;;10.40;99.90;;;;;;5071929;28;20496;-73
2022/04/06 07:45:53;;;;;;;8.15;2.05;;;10.30;99.90;;;;;;5072999;28;20032;-72
2022/04/06 07:48:19;;;;;;;6.90;2.25;;;10.30;99.90;;;;;;5054159;28;20040;-74
2022/04/06 07:50:45;;;;;;;12.13;2.00;;;10.30;99.90;;;;;;5072372;28;20039;-74
2022/04/06 07:53:11;;;;;;;7.90;2.25;;;10.30;99.90;;;;;;5071722;28;20031;-74
2022/04/06 07:55:37;;;;;;;7.32;1.80;;;10.30;99.90;;;;;;5074293;28;20425;-73
2022/04/06 07:58:02;;;;;;;8.48;2.42;;;10.30;99.90;;;;;;5072578;28;20039;-73
2022/04/06 08:00:33;;;;;;;5.75;1.77;;;10.20;99.90;;;;;;5072073;28;20043;-73
2022/04/06 08:02:58;;;;;;;8.30;1.50;;;10.20;99.90;;;;;;5072217;28;20036;-73
2022/04/06 08:05:24;;;;;;;10.13;1.90;;;10.20;99.90;;;;;;5102227;28;20053;-73
2022/04/06 08:07:53;;;;;;;6.05;1.98;;;10.10;99.90;;;;;;5111931;28;20023;-74
2022/04/06 08:10:19;;;;;;;11.60;2.88;;;10.10;99.90;;;;;;5110077;28;20054;-73
2022/04/06 08:12:46;;;;;;;9.90;2.58;;;10.10;99.90;;;;;;5111212;28;20043;-73
2022/04/06 08:15:12;;;;;;;11.20;2.58;;;10.10;99.90;;;;;;5110608;28;20038;-73
2022/04/06 08:17:43;;;;;;;10.52;2.90;;;10.00;99.90;;;;;;5110320;28;20035;-76
2022/04/06 08:20:14;;;;;;;13.93;3.38;;;10.10;99.90;;;;;;5110575;28;20027;-76
2022/04/06 08:22:41;;;;;;;17.88;2.65;;;10.00;99.90;;;;;;5110830;28;20455;-74
2022/04/06 08:25:07;;;;;;;12.43;2.45;;;10.10;99.90;;;;;;5110642;28;20077;-74
2022/04/06 08:27:36;;;;;;;10.82;2.60;;;10.10;99.90;;;;;;5111093;28;20187;-75
2022/04/06 08:30:05;;;;;;;9.70;2.50;;;10.00;99.90;;;;;;5110274;28;20036;-73
2022/04/06 08:32:31;;;;;;;10.85;2.85;;;10.00;99.90;;;;;;5109956;28;20049;-73
2022/04/06 08:34:57;;;;;;;13.13;2.92;;;10.00;99.90;;;;;;5110851;28;20044;-73
2022/04/06 08:37:22;;;;;;;19.95;3.47;;;10.00;99.90;;;;;;5104187;28;20546;-73
2022/04/06 08:39:48;;;;;;;14.55;3.55;;;10.00;99.90;;;;;;5090786;28;20016;-73
2022/04/06 08:42:14;;;;;;;6.20;2.45;;;10.00;99.90;;;;;;5099951;28;20108;-74
2022/04/06 08:44:41;;;;;;;10.80;2.90;;;10.10;99.90;;;;;;5087777;28;20032;-74
2022/04/06 08:47:07;;;;;;;11.40;3.80;;;10.10;99.90;;;;;;5089162;28;20021;-73
2022/04/06 08:49:36;;;;;;;14.50;3.00;;;10.10;99.90;;;;;;5106927;28;20536;-73
2022/04/06 08:52:03;;;;;;;9.10;2.78;;;10.10;99.90;;;;;;5103167;28;20042;-73
2022/04/06 08:54:29;;;;;;;9.38;3.88;;;10.10;99.90;;;;;;5107443;28;20122;-73
2022/04/06 08:56:55;;;;;;;13.30;4.00;;;10.10;99.90;;;;;;5070390;28;20111;-73
2022/04/06 08:59:21;;;;;;;11.93;4.63;;;10.20;99.90;;;;;;5068896;28;20032;-72
2022/04/06 09:01:46;;;;;;;14.38;4.03;;;10.10;99.90;;;;;;5070459;28;20029;-72
2022/04/06 09:04:13;;;;;;;18.65;4.65;;;10.20;99.90;;;;;;5071236;28;20389;-71
2022/04/06 09:06:39;;;;;;;12.25;3.85;;;10.20;99.90;;;;;;5071209;28;20024;-72
2022/04/06 09:09:05;;;;;;;13.52;4.10;;;10.10;99.90;;;;;;5072011;28;20166;-73
2022/04/06 09:11:43;;;;;;;19.75;4.25;;;10.10;99.90;;;;;;5071275;28;20044;-72
2022/04/06 09:14:10;;;;;;;13.65;4.45;;;10.10;99.90;;;;;;5070770;28;20515;-72
2022/04/06 09:16:36;;;;;;;13.55;4.32;;;10.10;99.90;;;;;;5072296;28;20044;-72
2022/04/06 09:19:12;;;;;;;12.82;4.65;;;10.10;99.90;;;;;;5071044;28;20145;-72
2022/04/06 09:21:43;;;;;;;8.77;4.70;;;10.10;99.90;;;;;;5071616;28;20028;-72
2022/04/06 09:24:19;;;;;;;13.25;4.55;;;10.10;99.90;;;;;;5071172;28;20028;-72
2022/04/06 09:27:01;;;;;;;11.88;4.75;;;10.10;99.90;;;;;;5070475;28;20492;-73
2022/04/06 09:29:26;;;;;;;10.38;4.90;;;10.10;99.90;;;;;;5071360;28;20219;-72
2022/04/06 09:31:53;;;;;;;13.95;4.40;;;10.10;99.90;;;;;;5071414;28;20036;-72
2022/04/06 09:34:26;;;;;;;17.50;5.07;;;10.00;99.90;;;;;;5070508;28;20025;-73
2022/04/06 09:36:56;;;;;;;10.40;4.80;;;10.00;99.90;;;;;;5071415;28;20102;-72
2022/04/06 09:39:42;;;;;;;9.05;4.93;;;10.00;99.90;;;;;;5071045;28;20447;-72
2022/04/06 09:42:08;;;;;;;11.88;5.50;;;10.00;99.90;;;;;;5070402;28;20058;-72
2022/04/06 09:47:39;;;;;;;17.40;5.30;;;10.10;99.90;;;;;;5070834;28;20144;-72
2022/04/06 09:50:08;;;;;;;16.40;5.72;;;10.10;99.90;;;;;;5071303;28;20080;-73
2022/04/06 09:52:36;;;;;;;8.65;5.53;;;10.20;99.90;;;;;;5071198;28;20028;-73
2022/04/06 09:55:07;;;;;;;22.42;5.82;;;10.30;99.90;;;;;;5074061;28;20024;-73
2022/04/06 09:57:42;;;;;;;23.58;5.88;;;10.30;99.90;;;;;;5074907;28;20024;-73
2022/04/06 10:00:11;;;;;;;14.90;5.50;;;10.40;99.90;;;;;;5074553;28;20032;-73
2022/04/06 10:02:37;;;;;;;13.35;4.68;;;10.60;99.90;;;;;;5073923;28;20068;-72
2022/04/06 10:05:03;;;;;;;13.98;6.35;;;10.60;99.90;;;;;;5074849;28;20130;-72
2022/04/06 10:07:29;;;;;;;16.02;5.10;;;10.60;99.90;;;;;;5074410;28;20537;-72
2022/04/06 10:09:56;;;;;;;16.15;5.60;;;10.70;99.90;;;;;;5074313;28;20048;-72
2022/04/06 10:12:23;;;;;;;12.38;5.15;;;10.70;99.90;;;;;;5074251;28;20036;-72
2022/04/06 10:14:50;;;;;;;11.63;5.45;;;10.80;99.90;;;;;;5074378;28;20028;-72
2022/04/06 10:17:17;;;;;;;24.10;5.78;;;10.80;99.90;;;;;;5073429;28;20033;-72
2022/04/06 10:19:47;;;;;;;15.40;5.68;;;10.80;99.90;;;;;;5074489;28;20488;-73
2022/04/06 10:22:30;;;;;;;17.27;5.93;;;10.80;99.90;;;;;;5074564;28;20062;-72
2022/04/06 10:25:05;;;;;;;18.80;5.35;;;10.90;99.90;;;;;;5074281;28;20029;-72
2022/04/06 10:27:42;;;;;;;18.10;4.82;;;10.90;99.90;;;;;;5074089;28;20484;-73
2022/04/06 10:30:22;;;;;;;14.57;4.38;;;11.00;99.90;;;;;;5073653;28;20104;-73
2022/04/06 10:32:49;;;;;;;8.35;5.07;;;11.10;99.90;;;;;;5074467;28;20044;-74
2022/04/06 10:35:26;;;;;;;11.40;4.72;;;11.30;99.90;;;;;;5074269;28;20020;-73
2022/04/06 10:38:00;;;;;;;12.73;4.68;;;11.40;99.90;;;;;;5074058;28;20025;-74
2022/04/06 10:40:31;;;;;;;9.70;4.45;;;11.40;99.90;;;;;;5074112;28;20020;-73
2022/04/06 10:42:57;;;;;;;12.05;4.93;;;11.40;99.90;;;;;;5074236;28;20017;-73
2022/04/06 10:45:33;;;;;;;12.48;4.40;;;11.40;99.90;;;;;;5073354;28;20029;-72
2022/04/06 10:48:24;;;;;;;13.23;4.80;;;11.40;99.90;;;;;;5074196;28;20012;-73
2022/04/06 10:50:50;;;;;;;18.70;5.13;;;11.40;99.90;;;;;;5071174;28;20093;-73
2022/04/06 10:53:18;;;;;;;11.98;4.72;;;11.30;99.90;;;;;;5073814;28;20036;-72
2022/04/06 10:56:16;;;;;;;10.30;5.07;;;11.30;99.90;;;;;;5074142;28;20108;-75
2022/04/06 10:58:54;;;;;;;11.85;4.65;;;11.30;99.90;;;;;;5073534;28;20024;-71
2022/04/06 11:01:26;;;;;;;11.93;6.18;;;11.30;99.90;;;;;;5073614;28;20111;-73
2022/04/06 11:04:05;;;;;;;10.60;4.57;;;11.30;99.90;;;;;;5073984;28;20021;-73
2022/04/06 11:06:44;;;;;;;11.80;3.80;;;11.30;99.90;;;;;;5072685;28;20082;-73
2022/04/06 11:12:13;;;;;;;17.00;4.53;;;11.30;99.90;;;;;;5072764;28;20392;-74
2022/04/06 11:14:39;;;;;;;17.98;5.07;;;11.40;99.90;;;;;;5073694;28;20465;-72
2022/04/06 11:17:27;;;;;;;11.50;3.72;;;11.40;99.90;;;;;;5073618;28;20112;-73
2022/04/06 11:19:53;;;;;;;11.60;4.35;;;11.60;99.90;;;;;;5072645;28;20020;-73
2022/04/06 11:22:22;;;;;;;14.00;4.18;;;11.60;99.90;;;;;;5073338;28;20081;-73
2022/04/06 11:24:48;;;;;;;14.40;5.07;;;11.60;99.90;;;;;;5073331;28;20024;-72
2022/04/06 11:27:32;;;;;;;9.52;4.70;;;11.60;99.90;;;;;;5072349;28;20121;-73
2022/04/06 11:30:13;;;;;;;15.70;4.97;;;11.60;99.90;;;;;;5073475;28;20465;-73
2022/04/06 11:32:49;;;;;;;14.48;5.32;;;11.60;99.90;;;;;;5072718;28;20033;-73
2022/04/06 11:35:15;;;;;;;11.00;4.65;;;11.60;99.90;;;;;;5072704;28;20396;-73
2022/04/06 11:37:47;;;;;;;11.77;4.93;;;11.50;99.90;;;;;;5073256;28;20148;-73
2022/04/06 11:40:13;;;;;;;7.07;4.47;;;11.40;99.90;;;;;;5072278;28;20032;-73
2022/04/06 11:42:40;;;;;;;13.25;5.35;;;11.40;99.90;;;;;;5073269;28;20032;-73
2022/04/06 11:45:06;;;;;;;12.93;4.60;;;11.40;99.90;;;;;;5073166;28;20020;-73
2022/04/06 11:47:37;;;;;;;5.60;4.10;;;11.40;99.90;;;;;;5072232;28;20111;-73
2022/04/06 11:50:10;;;;;;;15.95;5.25;;;11.40;99.90;;;;;;5072886;28;20024;-74
2022/04/06 11:52:40;;;;;;;14.43;5.10;;;11.40;99.90;;;;;;5072939;28;20036;-73
2022/04/06 11:55:07;;;;;;;9.45;4.00;;;11.40;99.90;;;;;;5072372;28;20453;-72
2022/04/06 11:57:36;;;;;;;6.93;3.75;;;11.40;99.90;;;;;;5072903;28;20077;-73
2022/04/06 12:00:05;;;;;;;11.90;4.40;;;11.40;99.90;;;;;;5072727;28;20357;-73
2022/04/06 12:02:50;;;;;;;8.50;3.85;;;11.50;99.90;;;;;;5071671;28;20388;-77
2022/04/06 12:05:16;;;;;;;7.80;3.63;;;11.50;99.90;;;;;;5072578;28;20361;-74
2022/04/06 12:07:41;;;;;;;13.95;4.45;;;11.50;99.90;;;;;;5072012;28;20032;-74
2022/04/06 12:10:07;;;;;;;7.38;3.83;;;11.60;99.90;;;;;;5071954;28;20152;-72
2022/04/06 12:12:39;;;;;;;13.30;3.53;;;11.60;99.90;;;;;;5072338;28;20035;-74
2022/04/06 12:15:08;;;;;;;11.35;3.42;;;11.60;99.90;;;;;;5071884;28;20060;-73
2022/04/06 12:17:37;;;;;;;8.93;3.50;;;11.50;99.90;;;;;;5072014;28;20480;-74
2022/04/06 12:20:24;;;;;;;6.47;3.28;;;11.40;99.90;;;;;;5072605;28;20036;-73
2022/04/06 12:23:08;;;;;;;8.27;3.05;;;11.30;99.90;;;;;;5071517;28;20024;-72
2022/04/06 12:25:35;;;;;;;7.68;2.88;;;11.30;99.90;;;;;;5072269;28;20024;-73
2022/04/06 12:28:12;;;;;;;7.50;3.05;;;11.20;99.90;;;;;;5072180;28;20150;-73
2022/04/06 12:31:00;;;;;;;5.78;3.72;;;11.20;99.90;;;;;;5071409;28;20473;-73
2022/04/06 12:33:48;;;;;;;5.63;2.58;;;11.20;99.90;;;;;;5072181;28;20387;-73
2022/04/06 12:36:14;;;;;;;6.75;2.72;;;11.20;99.90;;;;;;5073541;28;20488;-74
2022/04/06 12:38:42;;;;;;;6.78;2.38;;;11.10;99.90;;;;;;5074312;28;20027;-73
2022/04/06 12:41:12;;;;;;;9.90;2.45;;;11.20;99.90;;;;;;5071892;28;20020;-73
2022/04/06 12:43:45;;;;;;;5.18;2.50;;;11.20;99.90;;;;;;5071421;28;20055;-73
2022/04/06 12:46:11;;;;;;;7.50;3.03;;;11.20;99.90;;;;;;5071531;28;20077;-73
2022/04/06 12:48:36;;;;;;;3.65;2.42;;;11.20;99.90;;;;;;5071881;28;20025;-73
2022/04/06 12:51:21;;;;;;;6.20;2.42;;;11.30;99.90;;;;;;5070930;28;20543;-70
2022/04/06 12:53:51;;;;;;;5.95;3.60;;;11.30;99.90;;;;;;5071802;28;20024;-73
2022/04/06 12:56:23;;;;;;;7.90;3.22;;;11.40;99.90;;;;;;5069046;28;20024;-73
2022/04/06 12:59:11;;;;;;;5.78;2.78;;;11.40;99.90;;;;;;5068283;28;20070;-74